createdAt,value
2022-09-29T00:02:18.481Z,97.52
2022-09-29T00:04:45.029Z,97.94
2022-09-29T00:07:11.559Z,98.12
2022-09-29T00:09:38.292Z,97.73
2022-09-29T00:12:05.084Z,97.99
2022-09-29T00:14:31.638Z,98.11
2022-09-29T00:16:58.391Z,98.03
2022-09-29T00:19:25.623Z,98.09
2022-09-29T00:21:52.217Z,98.14
2022-09-29T00:24:18.941Z,98.50
2022-09-29T00:26:46.792Z,98.42
2022-09-29T00:29:13.493Z,98.55
2022-09-29T00:31:40.189Z,98.45
2022-09-29T00:34:06.803Z,98.36
2022-09-29T00:36:33.349Z,98.73
2022-09-29T00:38:59.922Z,98.70
2022-09-29T00:41:31.267Z,98.54
2022-09-29T00:44:05.649Z,98.61
2022-09-29T00:46:35.501Z,98.86
2022-09-29T00:49:13.706Z,98.65
2022-09-29T00:51:43.569Z,98.83
2022-09-29T00:54:10.613Z,98.29
2022-09-29T00:56:40.187Z,98.22
2022-09-29T00:59:09.837Z,98.93
2022-09-29T01:01:36.648Z,98.08
2022-09-29T01:04:09.146Z,97.67
2022-09-29T01:06:38.785Z,97.21
2022-09-29T01:09:10.249Z,97.38
2022-09-29T01:11:37.001Z,97.31
2022-09-29T01:14:05.924Z,97.37
2022-09-29T01:16:33.209Z,97.96
2022-09-29T01:19:00.779Z,98.03
2022-09-29T01:21:45.881Z,97.91
2022-09-29T01:24:30.607Z,98.04
2022-09-29T01:27:15.873Z,97.97
2022-09-29T01:29:54.651Z,98.43
2022-09-29T01:32:24.022Z,98.37
2022-09-29T01:34:53.319Z,98.45
2022-09-29T01:37:28.744Z,98.63
2022-09-29T01:40:02.853Z,98.61
2022-09-29T01:42:32.728Z,98.54
2022-09-29T01:45:22.349Z,98.69
2022-09-29T01:47:52.506Z,98.33
2022-09-29T01:50:25.562Z,98.18
2022-09-29T01:52:56.649Z,98.21
2022-09-29T01:55:26.950Z,98.25
2022-09-29T01:58:02.357Z,98.70
2022-09-29T02:00:31.963Z,97.94
2022-09-29T02:03:17.208Z,97.99
2022-09-29T02:05:43.744Z,98.04
2022-09-29T02:08:25.338Z,98.02
2022-09-29T02:11:02.681Z,98.77
2022-09-29T02:13:32.556Z,98.85
2022-09-29T02:16:00.677Z,99.07
2022-09-29T02:18:30.867Z,99.22
2022-09-29T02:20:57.421Z,99.28
2022-09-29T02:23:24.035Z,99.09
2022-09-29T02:25:51.214Z,99.06
2022-09-29T02:28:18.233Z,98.79
2022-09-29T02:30:45.304Z,99.90
2022-09-29T02:33:22.643Z,99.32
2022-09-29T02:36:09.400Z,98.77
2022-09-29T02:38:36.272Z,98.87
2022-09-29T02:41:06.872Z,99.24
2022-09-29T02:43:33.418Z,99.28
2022-09-29T02:46:12.152Z,99.49
2022-09-29T02:48:57.429Z,99.55
2022-09-29T02:51:36.157Z,99.53
2022-09-29T02:54:13.064Z,99.66
2022-09-29T02:56:50.763Z,99.43
2022-09-29T02:59:40.397Z,99.33
2022-09-29T03:02:06.912Z,99.23
2022-09-29T03:04:33.466Z,99.38
2022-09-29T03:07:00.005Z,99.59
2022-09-29T03:09:26.559Z,99.68
2022-09-29T03:11:53.148Z,99.55
2022-09-29T03:14:19.772Z,99.63
2022-09-29T03:16:46.409Z,99.83
2022-09-29T03:19:13.002Z,99.89
2022-09-29T03:21:39.961Z,100.00
2022-09-29T03:24:06.675Z,99.96
2022-09-29T03:26:33.682Z,100.00
2022-09-29T03:29:00.376Z,100.00
2022-09-29T03:31:27.072Z,100.00
2022-09-29T03:33:53.773Z,100.00
2022-09-29T03:36:20.493Z,100.00
2022-09-29T03:38:47.392Z,100.00
2022-09-29T03:41:14.283Z,100.00
2022-09-29T03:43:40.951Z,100.00
2022-09-29T03:46:07.642Z,100.00
2022-09-29T03:48:35.429Z,100.00
2022-09-29T03:51:02.081Z,100.00
2022-09-29T03:53:28.662Z,100.00
2022-09-29T03:55:55.352Z,100.00
2022-09-29T03:58:21.929Z,100.00
2022-09-29T04:00:49.720Z,100.00
2022-09-29T04:03:16.464Z,100.00
2022-09-29T04:05:44.684Z,100.00
2022-09-29T04:08:11.332Z,100.00
2022-09-29T04:10:38.305Z,100.00
2022-09-29T04:13:05.642Z,100.00
2022-09-29T04:15:32.697Z,100.00
2022-09-29T04:17:59.699Z,100.00
2022-09-29T04:20:26.691Z,100.00
2022-09-29T04:22:53.722Z,100.00
2022-09-29T04:25:20.458Z,100.00
2022-09-29T04:27:47.041Z,100.00
2022-09-29T04:30:13.644Z,100.00
2022-09-29T04:32:40.185Z,100.00
2022-09-29T04:35:07.019Z,100.00
2022-09-29T04:37:33.670Z,100.00
2022-09-29T04:40:00.471Z,100.00
2022-09-29T04:42:27.038Z,100.00
2022-09-29T04:44:53.825Z,100.00
2022-09-29T04:47:20.475Z,100.00
2022-09-29T04:49:47.088Z,100.00
2022-09-29T04:52:14.256Z,100.00
2022-09-29T04:54:40.844Z,100.00
2022-09-29T04:57:07.859Z,100.00
2022-09-29T04:59:34.486Z,100.00
2022-09-29T05:02:01.134Z,100.00
2022-09-29T05:04:27.833Z,100.00
2022-09-29T05:06:54.405Z,100.00
2022-09-29T05:09:24.619Z,100.00
2022-09-29T05:11:51.749Z,100.00
2022-09-29T05:14:18.375Z,99.97
2022-09-29T05:16:45.051Z,99.94
2022-09-29T05:19:11.760Z,99.73
2022-09-29T05:21:38.393Z,99.45
2022-09-29T05:24:05.130Z,98.87
2022-09-29T05:26:32.135Z,98.77
2022-09-29T05:28:58.720Z,98.99
2022-09-29T05:31:25.496Z,98.84
2022-09-29T05:33:52.216Z,98.91
2022-09-29T05:36:19.002Z,98.68
2022-09-29T05:38:45.618Z,98.55
2022-09-29T05:41:12.977Z,98.82
2022-09-29T05:43:40.627Z,98.93
2022-09-29T05:46:08.690Z,98.82
2022-09-29T05:48:35.710Z,98.58
2022-09-29T05:51:12.405Z,98.63
2022-09-29T05:53:39.596Z,98.72
2022-09-29T05:56:10.923Z,98.68
2022-09-29T05:58:38.468Z,98.89
2022-09-29T06:01:05.973Z,98.75
2022-09-29T06:03:33.500Z,98.73
2022-09-29T06:06:04.478Z,100.00
2022-09-29T06:08:31.360Z,99.93
2022-09-29T06:11:10.313Z,100.00
2022-09-29T06:13:40.852Z,100.00
2022-09-29T06:16:08.164Z,100.00
2022-09-29T06:18:34.861Z,99.35
2022-09-29T06:21:05.668Z,99.47
2022-09-29T06:23:32.545Z,99.40
2022-09-29T06:25:59.592Z,99.30
2022-09-29T06:28:26.143Z,99.36
2022-09-29T06:30:52.742Z,99.78
2022-09-29T06:33:20.602Z,99.70
2022-09-29T06:36:06.813Z,100.00
2022-09-29T06:38:33.642Z,99.97
2022-09-29T06:41:00.738Z,100.00
2022-09-29T06:43:27.973Z,100.00
2022-09-29T06:45:54.595Z,100.00
2022-09-29T06:48:21.222Z,100.00
2022-09-29T06:50:54.783Z,100.00
2022-09-29T06:53:36.251Z,100.00
2022-09-29T06:56:04.359Z,100.00
2022-09-29T06:58:30.973Z,100.00
2022-09-29T07:01:00.381Z,100.00
2022-09-29T07:03:26.931Z,100.00
2022-09-29T07:06:15.166Z,100.00
2022-09-29T07:08:40.292Z,100.00
2022-09-29T07:11:07.750Z,100.00
2022-09-29T07:13:34.436Z,100.00
2022-09-29T07:16:07.087Z,100.00
2022-09-29T07:18:37.835Z,100.00
2022-09-29T07:21:10.099Z,100.00
2022-09-29T07:23:37.261Z,100.00
2022-09-29T07:26:04.802Z,100.00
2022-09-29T07:28:31.387Z,100.00
2022-09-29T07:31:12.005Z,100.00
2022-09-29T07:33:40.716Z,100.00
2022-09-29T07:36:07.914Z,100.00
2022-09-29T07:38:34.476Z,100.00
2022-09-29T07:41:02.451Z,100.00
2022-09-29T07:43:29.843Z,100.00
2022-09-29T07:45:56.525Z,100.00
2022-09-29T07:48:25.874Z,100.00
2022-09-29T07:51:01.117Z,100.00
2022-09-29T07:53:27.774Z,100.00
2022-09-29T07:55:54.461Z,100.00
2022-09-29T07:58:21.000Z,100.00
2022-09-29T08:00:53.317Z,100.00
2022-09-29T08:03:19.922Z,100.00
2022-09-29T08:05:46.466Z,100.00
2022-09-29T08:08:13.110Z,100.00
2022-09-29T08:10:50.405Z,100.00
2022-09-29T08:13:19.069Z,100.00
2022-09-29T08:15:45.707Z,100.00
2022-09-29T08:18:12.284Z,100.00
2022-09-29T08:20:39.002Z,100.00
2022-09-29T08:23:07.061Z,100.00
2022-09-29T08:25:35.338Z,100.00
2022-09-29T08:28:02.165Z,100.00
2022-09-29T08:30:29.095Z,100.00
2022-09-29T08:32:55.718Z,100.00
2022-09-29T08:35:22.421Z,100.00
2022-09-29T08:37:49.095Z,100.00
2022-09-29T08:40:16.187Z,100.00
2022-09-29T08:42:49.286Z,100.00
2022-09-29T08:45:29.110Z,99.77
2022-09-29T08:48:06.188Z,99.80
2022-09-29T08:50:42.646Z,99.79
2022-09-29T08:53:24.723Z,100.00
2022-09-29T08:55:56.457Z,100.00
2022-09-29T08:58:23.288Z,100.00
2022-09-29T09:00:56.901Z,100.00
2022-09-29T09:03:42.273Z,100.00
2022-09-29T09:06:28.390Z,99.80
2022-09-29T09:08:57.924Z,100.00
2022-09-29T09:11:24.484Z,100.00
2022-09-29T09:14:08.061Z,99.86
2022-09-29T09:16:43.697Z,100.00
2022-09-29T09:19:29.087Z,100.00
2022-09-29T09:22:22.770Z,100.00
2022-09-29T09:24:52.086Z,100.00
2022-09-29T09:27:24.822Z,100.00
2022-09-29T09:29:54.689Z,100.00
2022-09-29T09:32:32.929Z,100.00
2022-09-29T09:35:21.736Z,100.00
2022-09-29T09:37:50.916Z,100.00
2022-09-29T09:40:24.254Z,100.00
2022-09-29T09:42:53.861Z,100.00
2022-09-29T09:45:21.527Z,100.00
2022-09-29T09:47:49.322Z,100.00
2022-09-29T09:50:17.656Z,100.00
2022-09-29T09:52:45.732Z,100.00
2022-09-29T09:55:17.201Z,100.00
2022-09-29T09:58:03.109Z,100.00
2022-09-29T10:00:41.797Z,100.00
2022-09-29T10:03:09.935Z,100.00
2022-09-29T10:05:41.128Z,100.00
2022-09-29T10:08:10.861Z,99.71
2022-09-29T10:10:47.750Z,100.00
2022-09-29T10:13:28.990Z,100.00
2022-09-29T10:15:58.464Z,100.00
2022-09-29T10:18:25.001Z,100.00
2022-09-29T10:20:51.633Z,99.90
2022-09-29T10:23:18.128Z,100.00
2022-09-29T10:25:52.325Z,100.00
2022-09-29T10:28:19.217Z,100.00
2022-09-29T10:30:46.318Z,100.00
2022-09-29T10:33:18.616Z,100.00
2022-09-29T10:35:47.331Z,100.00
2022-09-29T10:38:18.556Z,100.00
2022-09-29T10:40:57.349Z,100.00
2022-09-29T10:43:32.053Z,99.85
2022-09-29T10:45:59.787Z,100.00
2022-09-29T10:48:27.049Z,100.00
2022-09-29T10:51:04.822Z,99.88
2022-09-29T10:53:39.107Z,100.00
2022-09-29T10:56:29.788Z,99.70
2022-09-29T10:59:04.475Z,99.75
2022-09-29T11:01:34.481Z,98.37
2022-09-29T11:04:06.760Z,98.69
2022-09-29T11:06:33.470Z,98.43
2022-09-29T11:09:00.951Z,97.76
2022-09-29T11:11:28.992Z,98.20
2022-09-29T11:13:57.124Z,97.48
2022-09-29T11:16:23.693Z,97.70
2022-09-29T11:18:52.787Z,97.71
2022-09-29T11:21:22.323Z,97.56
2022-09-29T11:24:01.078Z,96.47
2022-09-29T11:26:33.885Z,95.82
2022-09-29T11:29:07.783Z,94.57
2022-09-29T11:31:49.352Z,92.11
2022-09-29T11:34:15.866Z,93.95
2022-09-29T11:37:02.928Z,94.31
2022-09-29T11:39:41.040Z,85.22
2022-09-29T11:42:22.392Z,86.82
2022-09-29T11:44:58.350Z,87.30
2022-09-29T11:47:31.383Z,87.26
2022-09-29T11:50:07.078Z,84.69
2022-09-29T11:52:33.644Z,81.48
2022-09-29T11:55:19.105Z,81.80
2022-09-29T11:57:45.796Z,79.32
2022-09-29T12:00:17.177Z,77.26
2022-09-29T12:03:07.299Z,79.99
2022-09-29T12:05:49.867Z,81.08
2022-09-29T12:08:31.003Z,80.55
2022-09-29T12:11:01.945Z,77.11
2022-09-29T12:13:38.764Z,79.24
2022-09-29T12:16:11.467Z,75.18
2022-09-29T12:19:01.467Z,75.83
2022-09-29T12:21:34.277Z,75.40
2022-09-29T12:24:03.508Z,67.09
2022-09-29T12:26:31.138Z,71.69
2022-09-29T12:29:03.258Z,74.40
2022-09-29T12:31:39.428Z,76.55
2022-09-29T12:34:17.482Z,72.91
2022-09-29T12:36:54.090Z,72.68
2022-09-29T12:39:40.129Z,72.83
2022-09-29T12:42:15.544Z,77.12
2022-09-29T12:44:48.817Z,76.69
2022-09-29T12:47:27.401Z,77.43
2022-09-29T12:49:53.947Z,77.93
2022-09-29T12:52:25.051Z,78.13
2022-09-29T12:54:57.625Z,77.95
2022-09-29T12:57:45.460Z,77.26
2022-09-29T13:00:16.135Z,78.00
2022-09-29T13:02:42.917Z,78.58
2022-09-29T13:05:24.992Z,78.05
2022-09-29T13:07:59.261Z,78.80
2022-09-29T13:10:25.868Z,78.64
2022-09-29T13:12:52.858Z,78.82
2022-09-29T13:15:46.176Z,78.80
2022-09-29T13:18:21.303Z,79.72
2022-09-29T13:20:47.879Z,80.25
2022-09-29T13:23:34.468Z,80.34
2022-09-29T13:26:10.431Z,79.74
2022-09-29T13:28:43.424Z,80.04
2022-09-29T13:31:15.124Z,80.51
2022-09-29T13:33:46.716Z,80.97
2022-09-29T13:36:22.539Z,81.13
2022-09-29T13:38:53.616Z,80.77
2022-09-29T13:41:20.524Z,81.39
2022-09-29T13:43:53.007Z,81.93
2022-09-29T13:46:25.831Z,81.81
2022-09-29T13:48:53.349Z,81.50
2022-09-29T13:51:24.688Z,81.36
2022-09-29T13:54:23.957Z,81.78
2022-09-29T13:56:57.905Z,81.79
2022-09-29T13:59:25.752Z,81.37
2022-09-29T14:01:53.292Z,80.54
2022-09-29T14:04:38.471Z,80.44
2022-09-29T14:07:06.642Z,80.96
2022-09-29T14:09:36.050Z,78.85
2022-09-29T14:12:08.343Z,80.99
2022-09-29T14:14:38.331Z,80.59
2022-09-29T14:17:05.635Z,81.07
2022-09-29T14:19:36.395Z,81.92
2022-09-29T14:22:05.676Z,82.21
2022-09-29T14:24:34.970Z,81.95
2022-09-29T14:27:20.395Z,82.14
2022-09-29T14:29:52.106Z,82.46
2022-09-29T14:32:20.112Z,82.54
2022-09-29T14:34:47.926Z,82.47
2022-09-29T14:37:17.291Z,82.58
2022-09-29T14:40:04.299Z,83.15
2022-09-29T14:42:31.038Z,83.30
2022-09-29T14:45:16.757Z,83.72
2022-09-29T14:48:01.930Z,84.02
2022-09-29T14:50:47.325Z,86.62
2022-09-29T14:53:17.531Z,86.90
2022-09-29T14:56:00.141Z,85.35
2022-09-29T14:58:28.860Z,85.67
2022-09-29T15:01:10.052Z,85.78
2022-09-29T15:03:44.152Z,85.90
2022-09-29T15:06:21.373Z,86.02
2022-09-29T15:09:01.289Z,86.38
2022-09-29T15:11:30.222Z,88.06
2022-09-29T15:13:57.802Z,88.08
2022-09-29T15:16:24.377Z,88.25
2022-09-29T15:18:51.002Z,90.27
2022-09-29T15:21:21.375Z,90.55
2022-09-29T15:23:48.114Z,88.62
2022-09-29T15:26:15.245Z,88.20
2022-09-29T15:28:42.933Z,93.38
2022-09-29T15:31:27.472Z,91.08
2022-09-29T15:33:54.488Z,89.82
2022-09-29T15:36:22.882Z,89.64
2022-09-29T15:38:53.724Z,90.03
2022-09-29T15:41:27.423Z,91.03
2022-09-29T15:43:58.544Z,90.35
2022-09-29T15:46:45.551Z,90.03
2022-09-29T15:49:17.446Z,90.58
2022-09-29T15:51:57.128Z,90.48
2022-09-29T15:54:24.786Z,91.64
2022-09-29T15:57:09.731Z,92.17
2022-09-29T15:59:44.296Z,93.12
2022-09-29T16:02:19.796Z,92.92
2022-09-29T16:04:47.744Z,93.14
2022-09-29T16:07:23.366Z,93.32
2022-09-29T16:09:51.177Z,93.73
2022-09-29T16:12:21.012Z,94.15
2022-09-29T16:14:50.045Z,93.77
2022-09-29T16:17:17.005Z,94.19
2022-09-29T16:19:45.605Z,94.51
2022-09-29T16:22:16.889Z,94.76
2022-09-29T16:24:52.522Z,94.98
2022-09-29T16:27:40.833Z,95.38
2022-09-29T16:30:21.368Z,95.71
2022-09-29T16:32:52.929Z,96.51
2022-09-29T16:35:40.983Z,96.70
2022-09-29T16:38:16.098Z,96.96
2022-09-29T16:40:42.860Z,96.96
2022-09-29T16:43:28.057Z,97.04
2022-09-29T16:45:58.788Z,97.75
2022-09-29T16:48:26.836Z,98.11
2022-09-29T16:50:56.453Z,98.41
2022-09-29T16:53:30.474Z,98.77
2022-09-29T16:55:58.253Z,98.83
2022-09-29T16:58:26.036Z,99.75
2022-09-29T17:00:52.649Z,99.87
2022-09-29T17:03:19.219Z,100.00
2022-09-29T17:05:49.246Z,100.00
2022-09-29T17:08:22.321Z,100.00
2022-09-29T17:10:52.526Z,100.00
2022-09-29T17:13:21.178Z,100.00
2022-09-29T17:15:49.800Z,100.00
2022-09-29T17:18:17.596Z,100.00
2022-09-29T17:20:44.212Z,100.00
2022-09-29T17:23:11.605Z,100.00
2022-09-29T17:25:39.752Z,100.00
2022-09-29T17:28:36.463Z,100.00
2022-09-29T17:31:03.764Z,100.00
2022-09-29T17:33:31.115Z,100.00
2022-09-29T17:35:58.024Z,100.00
2022-09-29T17:38:25.706Z,100.00
2022-09-29T17:41:03.716Z,100.00
2022-09-29T17:43:31.512Z,100.00
2022-09-29T17:45:59.162Z,100.00
2022-09-29T17:48:26.035Z,100.00
2022-09-29T17:50:54.856Z,100.00
2022-09-29T17:53:21.467Z,100.00
2022-09-29T17:55:51.969Z,100.00
2022-09-29T17:58:19.566Z,100.00
2022-09-29T18:00:51.540Z,100.00
2022-09-29T18:03:19.049Z,100.00
2022-09-29T18:05:55.851Z,100.00
2022-09-29T18:08:23.459Z,100.00
2022-09-29T18:11:00.146Z,100.00
2022-09-29T18:13:28.334Z,100.00
2022-09-29T18:15:55.366Z,100.00
2022-09-29T18:18:22.504Z,100.00
2022-09-29T18:20:50.601Z,100.00
2022-09-29T18:23:18.254Z,100.00
2022-09-29T18:25:47.877Z,100.00
2022-09-29T18:28:15.508Z,100.00
2022-09-29T18:30:43.083Z,100.00
2022-09-29T18:33:13.346Z,100.00
2022-09-29T18:35:41.455Z,100.00
2022-09-29T18:38:08.382Z,100.00
2022-09-29T18:40:35.009Z,100.00
2022-09-29T18:43:02.013Z,100.00
2022-09-29T18:45:29.696Z,100.00
2022-09-29T18:48:03.477Z,100.00
2022-09-29T18:50:31.069Z,100.00
2022-09-29T18:52:59.247Z,100.00
2022-09-29T18:55:26.560Z,100.00
2022-09-29T18:57:54.084Z,100.00
2022-09-29T19:00:22.373Z,100.00
2022-09-29T19:02:49.728Z,100.00
2022-09-29T19:05:21.368Z,100.00
2022-09-29T19:07:49.113Z,100.00
2022-09-29T19:10:16.920Z,100.00
2022-09-29T19:12:48.263Z,100.00
2022-09-29T19:15:16.122Z,100.00
2022-09-29T19:17:43.017Z,100.00
2022-09-29T19:20:10.909Z,100.00
2022-09-29T19:22:42.179Z,100.00
2022-09-29T19:25:19.423Z,100.00
2022-09-29T19:27:47.125Z,100.00
2022-09-29T19:30:14.981Z,100.00
2022-09-29T19:32:42.185Z,100.00
2022-09-29T19:35:10.517Z,100.00
2022-09-29T19:37:37.909Z,100.00
2022-09-29T19:40:05.298Z,100.00
2022-09-29T19:42:32.181Z,100.00
2022-09-29T19:44:59.342Z,100.00
2022-09-29T19:47:25.890Z,100.00
2022-09-29T19:50:12.429Z,100.00
2022-09-29T19:52:39.015Z,100.00
2022-09-29T19:55:11.049Z,100.00
2022-09-29T19:57:42.580Z,100.00
2022-09-29T20:00:10.954Z,100.00
2022-09-29T20:02:37.821Z,100.00
2022-09-29T20:05:05.181Z,100.00
2022-09-29T20:07:31.813Z,100.00
2022-09-29T20:09:58.336Z,100.00
2022-09-29T20:12:24.918Z,100.00
2022-09-29T20:14:51.532Z,100.00
2022-09-29T20:17:18.352Z,100.00
2022-09-29T20:19:47.233Z,100.00
2022-09-29T20:22:14.398Z,100.00
2022-09-29T20:24:41.022Z,100.00
2022-09-29T20:27:07.559Z,100.00
2022-09-29T20:29:34.193Z,100.00
2022-09-29T20:32:00.881Z,100.00
2022-09-29T20:34:27.446Z,100.00
2022-09-29T20:36:55.244Z,100.00
2022-09-29T20:39:24.640Z,100.00
2022-09-29T20:41:54.003Z,100.00
2022-09-29T20:44:25.413Z,100.00
2022-09-29T20:46:52.889Z,100.00
2022-09-29T20:49:19.490Z,100.00
2022-09-29T20:51:46.064Z,100.00
2022-09-29T20:54:13.272Z,100.00
2022-09-29T20:56:42.727Z,100.00
2022-09-29T20:59:11.157Z,100.00
2022-09-29T21:01:38.363Z,100.00
2022-09-29T21:04:07.560Z,100.00
2022-09-29T21:06:35.812Z,100.00
2022-09-29T21:09:03.349Z,100.00
2022-09-29T21:11:30.014Z,100.00
2022-09-29T21:13:57.081Z,100.00
2022-09-29T21:16:24.090Z,100.00
2022-09-29T21:18:52.738Z,100.00
2022-09-29T21:21:19.794Z,100.00
2022-09-29T21:23:46.432Z,100.00
2022-09-29T21:26:15.157Z,100.00
2022-09-29T21:28:43.162Z,100.00
2022-09-29T21:31:11.937Z,100.00
2022-09-29T21:33:39.568Z,100.00
2022-09-29T21:36:08.000Z,100.00
2022-09-29T21:38:36.219Z,100.00
2022-09-29T21:41:06.840Z,100.00
2022-09-29T21:43:34.371Z,100.00
2022-09-29T21:46:02.224Z,100.00
2022-09-29T21:48:29.128Z,100.00
2022-09-29T21:51:05.117Z,100.00
2022-09-29T21:53:32.443Z,100.00
2022-09-29T21:55:59.989Z,100.00
2022-09-29T21:58:26.636Z,100.00
2022-09-29T22:00:53.958Z,100.00
2022-09-29T22:03:20.552Z,100.00
2022-09-29T22:05:47.505Z,100.00
2022-09-29T22:08:14.083Z,100.00
2022-09-29T22:10:40.649Z,100.00
2022-09-29T22:13:07.291Z,100.00
2022-09-29T22:15:34.172Z,100.00
2022-09-29T22:18:00.939Z,100.00
2022-09-29T22:20:27.714Z,100.00
2022-09-29T22:22:54.486Z,100.00
2022-09-29T22:25:21.275Z,100.00
2022-09-29T22:27:48.526Z,100.00
2022-09-29T22:30:15.329Z,100.00
2022-09-29T22:32:42.172Z,100.00
2022-09-29T22:35:09.174Z,100.00
2022-09-29T22:37:36.043Z,100.00
2022-09-29T22:40:04.060Z,100.00
2022-09-29T22:42:31.023Z,100.00
2022-09-29T22:44:57.850Z,100.00
2022-09-29T22:47:24.642Z,100.00
2022-09-29T22:49:51.826Z,100.00
2022-09-29T22:52:18.626Z,100.00
2022-09-29T22:54:45.430Z,100.00
2022-09-29T22:57:12.222Z,100.00
2022-09-29T22:59:39.087Z,100.00
2022-09-29T23:02:05.907Z,100.00
2022-09-29T23:04:32.879Z,100.00
2022-09-29T23:07:01.625Z,100.00
2022-09-29T23:09:28.505Z,100.00
2022-09-29T23:11:55.277Z,100.00
2022-09-29T23:14:22.877Z,100.00
2022-09-29T23:16:49.521Z,100.00
2022-09-29T23:19:16.361Z,100.00
2022-09-29T23:21:43.087Z,100.00
2022-09-29T23:24:09.703Z,100.00
2022-09-29T23:26:36.280Z,100.00
2022-09-29T23:29:04.017Z,100.00
2022-09-29T23:31:30.705Z,100.00
2022-09-29T23:33:58.632Z,100.00
2022-09-29T23:36:27.466Z,100.00
2022-09-29T23:39:14.280Z,100.00
2022-09-29T23:41:42.430Z,100.00
2022-09-29T23:44:09.824Z,100.00
2022-09-29T23:46:37.848Z,100.00
2022-09-29T23:49:09.116Z,100.00
2022-09-29T23:51:37.580Z,100.00
2022-09-29T23:54:05.056Z,100.00
2022-09-29T23:56:31.703Z,100.00
2022-09-29T23:58:58.272Z,100.00
